Time;durP1;ratioP1;P1;durP2;ratioP2;P2;SDS_P1;SDS_P2;PMS_P1;PMS_P2;Temp;Humidity;BMP_temperature;BMP_pressure;BME280_temperature;BME280_humidity;BME280_pressure;Samples;Min_cycle;Max_cycle;Signal;HPM_P1;HPM_P2
2022/08/07 00:00:34;;;;;;;0.60;0.30;;;17.20;45.10;;;;;;5004429;28;20389;-70
2022/08/07 00:03:00;;;;;;;0.73;0.22;;;17.20;45.10;;;;;;4993681;28;20096;-72
2022/08/07 00:05:26;;;;;;;0.20;0.20;;;17.10;45.10;;;;;;5001097;28;20038;-70
2022/08/07 00:07:51;;;;;;;0.70;0.30;;;17.10;45.30;;;;;;5003213;28;20049;-73
2022/08/07 00:10:17;;;;;;;1.30;0.30;;;17.10;45.50;;;;;;4968258;28;20030;-70
2022/08/07 00:12:42;;;;;;;0.63;0.40;;;17.00;45.50;;;;;;4954405;28;20184;-70
2022/08/07 00:15:09;;;;;;;0.65;0.20;;;17.00;45.70;;;;;;4974749;28;20045;-72
2022/08/07 00:17:34;;;;;;;1.95;0.30;;;16.90;45.70;;;;;;4993777;28;20033;-72
2022/08/07 00:20:00;;;;;;;1.95;0.65;;;16.90;45.80;;;;;;4983603;28;20045;-71
2022/08/07 00:22:25;;;;;;;2.03;0.47;;;16.80;45.90;;;;;;5004455;28;20517;-71
2022/08/07 00:24:51;;;;;;;0.80;0.40;;;16.80;46.00;;;;;;4995778;28;20038;-71
2022/08/07 00:27:16;;;;;;;0.45;0.30;;;16.70;46.00;;;;;;5015166;28;20568;-72
2022/08/07 00:29:42;;;;;;;0.52;0.30;;;16.70;46.20;;;;;;4988426;28;20038;-74
2022/08/07 00:32:08;;;;;;;0.25;0.25;;;16.70;46.30;;;;;;5013768;28;20502;-73
2022/08/07 00:34:34;;;;;;;0.70;0.30;;;16.60;46.40;;;;;;4991517;28;20037;-75
2022/08/07 00:36:59;;;;;;;0.28;0.28;;;16.60;46.50;;;;;;4977371;28;20037;-74
2022/08/07 00:39:25;;;;;;;2.28;0.47;;;16.50;46.50;;;;;;4999686;28;21723;-75
2022/08/07 00:41:54;;;;;;;1.83;0.38;;;16.50;46.70;;;;;;4987992;28;20046;-74
2022/08/07 00:44:20;;;;;;;0.28;0.20;;;16.40;46.70;;;;;;4989931;28;20560;-74
2022/08/07 00:46:46;;;;;;;0.40;0.30;;;16.30;47.20;;;;;;4988311;28;20124;-74
2022/08/07 00:49:11;;;;;;;0.30;0.30;;;16.30;46.90;;;;;;4981970;28;20044;-73
2022/08/07 00:51:37;;;;;;;1.40;0.40;;;16.30;47.20;;;;;;5026633;28;20040;-75
2022/08/07 00:54:02;;;;;;;1.10;0.40;;;16.20;47.20;;;;;;4992775;28;20169;-74
2022/08/07 00:56:28;;;;;;;2.72;0.55;;;16.20;47.40;;;;;;5001165;28;20710;-74
2022/08/07 00:58:54;;;;;;;0.22;0.20;;;16.20;47.40;;;;;;4997325;28;20088;-75
2022/08/07 01:01:19;;;;;;;0.35;0.10;;;16.10;47.40;;;;;;4988461;28;20135;-74
2022/08/07 01:03:47;;;;;;;1.75;0.22;;;16.10;47.60;;;;;;5010452;28;20131;-74
2022/08/07 01:06:13;;;;;;;1.15;0.20;;;16.00;47.60;;;;;;4969492;28;20038;-74
2022/08/07 01:08:39;;;;;;;1.20;0.30;;;16.00;47.80;;;;;;4971395;28;20056;-74
2022/08/07 01:11:05;;;;;;;0.40;0.30;;;16.00;47.90;;;;;;4982177;28;20095;-74
2022/08/07 01:13:30;;;;;;;0.20;0.20;;;16.00;48.00;;;;;;4985916;28;20862;-74
2022/08/07 01:15:56;;;;;;;1.35;0.30;;;15.90;48.00;;;;;;4989974;28;20047;-74
2022/08/07 01:18:21;;;;;;;1.75;0.30;;;15.90;48.20;;;;;;4999613;28;20033;-74
2022/08/07 01:20:52;;;;;;;1.25;0.38;;;15.90;48.40;;;;;;5008568;28;20037;-74
2022/08/07 01:23:18;;;;;;;0.45;0.30;;;15.80;48.30;;;;;;4993720;28;20095;-74
2022/08/07 01:25:43;;;;;;;0.30;0.30;;;15.80;48.50;;;;;;4973209;28;20042;-73
2022/08/07 01:28:09;;;;;;;1.10;0.20;;;15.80;48.60;;;;;;4969834;28;20034;-73
2022/08/07 01:30:34;;;;;;;0.30;0.30;;;15.70;48.60;;;;;;5005037;28;20033;-73
2022/08/07 01:33:00;;;;;;;0.30;0.30;;;15.70;48.80;;;;;;4965180;28;20041;-73
2022/08/07 01:35:25;;;;;;;0.75;0.30;;;15.70;48.90;;;;;;4992376;28;20068;-73
2022/08/07 01:37:51;;;;;;;0.20;0.20;;;15.70;49.00;;;;;;4988221;28;20121;-73
2022/08/07 01:40:18;;;;;;;0.52;0.30;;;15.60;48.90;;;;;;4975248;28;20030;-73
2022/08/07 01:42:44;;;;;;;0.50;0.30;;;15.60;49.10;;;;;;5000785;28;20540;-74
2022/08/07 01:45:09;;;;;;;1.23;0.20;;;15.60;49.30;;;;;;4998631;28;20124;-73
2022/08/07 01:47:35;;;;;;;0.45;0.30;;;15.50;49.20;;;;;;4993212;28;20037;-73
2022/08/07 01:50:01;;;;;;;0.85;0.30;;;15.50;49.40;;;;;;4996107;28;20456;-73
2022/08/07 01:52:26;;;;;;;0.88;0.55;;;15.40;49.40;;;;;;4995583;28;20033;-73
2022/08/07 01:54:52;;;;;;;2.40;0.20;;;15.50;49.60;;;;;;4979297;28;20033;-73
2022/08/07 01:57:22;;;;;;;1.90;0.30;;;15.40;49.70;;;;;;4994505;28;20030;-73
2022/08/07 01:59:54;;;;;;;0.40;0.30;;;15.40;49.70;;;;;;4943375;28;20038;-73
2022/08/07 02:02:26;;;;;;;1.13;0.20;;;15.40;50.00;;;;;;4990907;28;20041;-73
2022/08/07 02:05:01;;;;;;;2.30;0.30;;;15.30;49.90;;;;;;4981871;28;20442;-74
2022/08/07 02:07:32;;;;;;;1.27;0.30;;;15.30;50.10;;;;;;4980366;28;20140;-73
2022/08/07 02:09:58;;;;;;;0.82;0.30;;;15.30;50.10;;;;;;5000406;28;20522;-74
2022/08/07 02:12:23;;;;;;;0.20;0.20;;;15.20;50.10;;;;;;4974633;28;20037;-71
2022/08/07 02:14:51;;;;;;;1.70;0.40;;;15.20;50.20;;;;;;5002526;28;20039;-70
2022/08/07 02:17:17;;;;;;;0.30;0.20;;;15.20;50.30;;;;;;4983235;28;20033;-71
2022/08/07 02:19:44;;;;;;;0.47;0.30;;;15.10;50.30;;;;;;4956602;28;20042;-70
2022/08/07 02:22:11;;;;;;;0.28;0.20;;;15.10;50.50;;;;;;4991132;28;20128;-72
2022/08/07 02:24:37;;;;;;;0.28;0.20;;;15.10;50.60;;;;;;4991350;28;20060;-70
2022/08/07 02:27:03;;;;;;;0.20;0.20;;;15.10;50.60;;;;;;4990761;28;20042;-70
2022/08/07 02:29:29;;;;;;;0.43;0.30;;;15.00;50.70;;;;;;4979905;28;20042;-71
2022/08/07 02:31:54;;;;;;;0.35;0.20;;;15.00;50.80;;;;;;4984400;28;20072;-70
2022/08/07 02:34:20;;;;;;;1.05;0.30;;;15.00;50.90;;;;;;4977443;28;20107;-70
2022/08/07 02:36:45;;;;;;;0.47;0.20;;;14.90;50.90;;;;;;4978022;28;22382;-70
2022/08/07 02:39:11;;;;;;;0.30;0.30;;;14.90;51.00;;;;;;4973679;28;20053;-70
2022/08/07 02:41:37;;;;;;;1.63;0.20;;;14.80;51.00;;;;;;4963029;28;20045;-70
2022/08/07 02:44:03;;;;;;;2.67;0.30;;;14.80;51.10;;;;;;4969405;28;20604;-73
2022/08/07 02:46:29;;;;;;;0.60;0.40;;;14.80;51.20;;;;;;5007279;28;20668;-69
2022/08/07 02:48:54;;;;;;;0.55;0.22;;;14.80;51.30;;;;;;4970576;28;20753;-70
2022/08/07 02:51:20;;;;;;;0.47;0.30;;;14.70;51.30;;;;;;4959088;28;20033;-69
2022/08/07 02:53:52;;;;;;;1.85;0.30;;;14.70;51.50;;;;;;4982679;28;20042;-70
2022/08/07 02:56:18;;;;;;;0.57;0.20;;;14.70;51.50;;;;;;4967037;28;20060;-69
2022/08/07 02:58:44;;;;;;;0.52;0.28;;;14.60;51.60;;;;;;4976763;28;20731;-71
2022/08/07 03:01:09;;;;;;;1.02;0.20;;;14.60;51.80;;;;;;4976241;28;20061;-70
2022/08/07 03:03:35;;;;;;;1.38;0.50;;;14.60;51.80;;;;;;4979453;28;20841;-69
2022/08/07 03:06:01;;;;;;;0.40;0.30;;;14.50;51.90;;;;;;4958808;28;20049;-70
2022/08/07 03:08:26;;;;;;;0.98;0.30;;;14.50;52.00;;;;;;4923069;28;20048;-70
2022/08/07 03:10:52;;;;;;;1.08;0.30;;;14.50;52.10;;;;;;4978055;28;20458;-70
2022/08/07 03:13:17;;;;;;;0.80;0.40;;;14.50;52.20;;;;;;4963053;28;20044;-71
2022/08/07 03:15:43;;;;;;;1.23;0.40;;;14.40;52.20;;;;;;4987473;28;20045;-71
2022/08/07 03:18:09;;;;;;;0.75;0.30;;;14.30;52.20;;;;;;4966179;28;20050;-70
2022/08/07 03:20:34;;;;;;;1.65;0.20;;;14.40;52.50;;;;;;4982481;28;20067;-70
2022/08/07 03:23:00;;;;;;;0.35;0.32;;;14.30;52.40;;;;;;4964909;28;20069;-70
2022/08/07 03:25:26;;;;;;;0.75;0.75;;;14.30;52.60;;;;;;4963419;28;20038;-69
2022/08/07 03:27:51;;;;;;;1.67;0.38;;;14.30;52.80;;;;;;4990651;28;20077;-70
2022/08/07 03:30:17;;;;;;;1.33;0.38;;;14.20;52.70;;;;;;4984515;28;20120;-70
2022/08/07 03:32:43;;;;;;;1.38;0.32;;;14.20;52.80;;;;;;4967783;28;20066;-71
2022/08/07 03:35:12;;;;;;;0.70;0.30;;;14.20;52.90;;;;;;4956230;28;20050;-69
2022/08/07 03:37:38;;;;;;;1.13;0.22;;;14.10;53.00;;;;;;5002976;28;20892;-70
2022/08/07 03:40:04;;;;;;;0.93;0.30;;;14.10;53.00;;;;;;4993710;28;20041;-72
2022/08/07 03:42:30;;;;;;;0.35;0.35;;;14.10;53.10;;;;;;4952565;28;20048;-71
2022/08/07 03:44:56;;;;;;;1.30;0.25;;;14.10;53.20;;;;;;5003289;28;20053;-70
2022/08/07 03:47:21;;;;;;;0.40;0.30;;;14.00;53.30;;;;;;4968855;28;20044;-71
2022/08/07 03:49:47;;;;;;;0.63;0.28;;;14.00;53.40;;;;;;5000178;28;20091;-69
2022/08/07 03:52:12;;;;;;;1.50;0.30;;;14.00;53.40;;;;;;4986007;28;20669;-70
2022/08/07 03:54:38;;;;;;;0.75;0.38;;;14.00;53.60;;;;;;5008412;28;20405;-70
2022/08/07 03:57:04;;;;;;;0.38;0.20;;;13.90;53.60;;;;;;4994228;28;20117;-70
2022/08/07 03:59:31;;;;;;;0.52;0.30;;;13.90;53.60;;;;;;4992606;28;20030;-70
2022/08/07 04:01:56;;;;;;;0.32;0.30;;;13.90;53.70;;;;;;5020140;28;20037;-69
2022/08/07 04:04:22;;;;;;;0.82;0.20;;;13.90;53.90;;;;;;5017138;28;20868;-69
2022/08/07 04:06:47;;;;;;;0.40;0.40;;;13.80;53.90;;;;;;4995853;28;20058;-71
2022/08/07 04:09:13;;;;;;;1.05;0.30;;;13.80;54.60;;;;;;4992945;28;20725;-70
2022/08/07 04:11:39;;;;;;;0.65;0.32;;;13.80;54.00;;;;;;4992618;28;20512;-71
2022/08/07 04:14:04;;;;;;;0.40;0.40;;;13.80;54.00;;;;;;4977632;28;20182;-70
2022/08/07 04:16:30;;;;;;;1.52;0.30;;;13.80;54.10;;;;;;4977133;28;20037;-69
2022/08/07 04:18:56;;;;;;;0.20;0.20;;;13.70;54.10;;;;;;5009996;28;20031;-69
2022/08/07 04:21:21;;;;;;;0.68;0.30;;;13.70;54.20;;;;;;4964016;28;20041;-70
2022/08/07 04:23:47;;;;;;;0.40;0.40;;;13.70;54.50;;;;;;4968344;28;20042;-70
2022/08/07 04:26:13;;;;;;;0.73;0.50;;;13.70;54.40;;;;;;4969527;28;20033;-70
2022/08/07 04:28:41;;;;;;;0.40;0.40;;;13.60;54.40;;;;;;4972389;28;20049;-71
2022/08/07 04:31:08;;;;;;;1.00;0.40;;;13.60;54.60;;;;;;4998913;28;20595;-71
2022/08/07 04:33:34;;;;;;;0.93;0.38;;;13.60;54.60;;;;;;5011106;28;20055;-71
2022/08/07 04:36:00;;;;;;;0.40;0.30;;;13.60;54.70;;;;;;4961659;28;20100;-71
2022/08/07 04:38:25;;;;;;;1.23;0.40;;;13.60;54.80;;;;;;4968599;28;20538;-71
2022/08/07 04:40:51;;;;;;;2.80;0.47;;;13.60;54.90;;;;;;4978625;28;20092;-71
2022/08/07 04:43:19;;;;;;;3.05;0.40;;;13.60;55.00;;;;;;4968761;28;20614;-71
2022/08/07 04:46:07;;;;;;;1.38;0.40;;;13.50;55.00;;;;;;4987880;28;20077;-70
2022/08/07 04:48:44;;;;;;;1.05;0.35;;;13.50;55.10;;;;;;4990863;28;20522;-71
2022/08/07 04:51:44;;;;;;;0.65;0.35;;;13.50;55.40;;;;;;4978570;28;20034;-69
2022/08/07 04:54:32;;;;;;;1.65;0.30;;;13.50;55.60;;;;;;4942971;28;20120;-73
2022/08/07 04:57:06;;;;;;;0.40;0.40;;;13.50;55.50;;;;;;5023061;28;20045;-69
2022/08/07 04:59:55;;;;;;;0.50;0.32;;;13.50;55.30;;;;;;4986759;28;20056;-71
2022/08/07 05:02:59;;;;;;;1.02;0.40;;;13.50;55.80;;;;;;4981040;28;20195;-72
2022/08/07 05:05:40;;;;;;;0.35;0.35;;;13.50;55.80;;;;;;4962065;28;20037;-72
2022/08/07 05:08:10;;;;;;;0.90;0.47;;;13.50;55.60;;;;;;4987274;28;20099;-71
2022/08/07 05:10:47;;;;;;;1.00;0.45;;;13.50;55.50;;;;;;4969230;28;20851;-69
2022/08/07 05:13:18;;;;;;;1.33;0.40;;;13.50;55.60;;;;;;4964407;28;20518;-70
2022/08/07 05:15:44;;;;;;;1.55;0.50;;;13.50;55.90;;;;;;4978041;28;20026;-69
2022/08/07 05:18:19;;;;;;;0.47;0.40;;;13.50;55.70;;;;;;4982439;28;20079;-70
2022/08/07 05:20:46;;;;;;;1.50;0.57;;;13.60;56.00;;;;;;4950284;28;20030;-70
2022/08/07 05:23:22;;;;;;;0.63;0.40;;;13.60;56.00;;;;;;4949174;28;20041;-69
2022/08/07 05:25:48;;;;;;;0.47;0.40;;;13.60;56.10;;;;;;5001278;28;20093;-71
2022/08/07 05:28:14;;;;;;;0.57;0.30;;;13.60;56.10;;;;;;4970594;28;20391;-70
2022/08/07 05:30:39;;;;;;;0.75;0.30;;;13.70;56.30;;;;;;4987975;28;20026;-70
2022/08/07 05:33:05;;;;;;;1.35;0.50;;;13.70;56.30;;;;;;4997311;28;20061;-69
2022/08/07 05:35:31;;;;;;;1.85;0.40;;;13.70;56.30;;;;;;4973232;28;20045;-70
2022/08/07 05:37:57;;;;;;;2.25;0.50;;;13.80;56.40;;;;;;4999120;28;20030;-70
2022/08/07 05:40:22;;;;;;;1.50;0.50;;;13.80;56.30;;;;;;4967693;28;20034;-71
2022/08/07 05:42:48;;;;;;;1.38;0.57;;;13.90;56.30;;;;;;4934722;28;20069;-71
2022/08/07 05:45:13;;;;;;;1.10;0.50;;;13.90;56.20;;;;;;4960062;28;20442;-70
2022/08/07 05:47:39;;;;;;;1.08;0.30;;;14.00;56.20;;;;;;4988112;28;20041;-69
2022/08/07 05:50:05;;;;;;;0.98;0.35;;;14.10;56.20;;;;;;4988940;28;20037;-71
2022/08/07 05:52:31;;;;;;;1.83;0.40;;;14.10;56.10;;;;;;4980675;28;20038;-71
2022/08/07 05:54:56;;;;;;;1.05;0.30;;;14.20;56.00;;;;;;4992259;28;20116;-71
2022/08/07 05:57:23;;;;;;;0.82;0.30;;;14.30;56.00;;;;;;4985719;28;20037;-71
2022/08/07 05:59:48;;;;;;;1.33;0.43;;;14.30;55.90;;;;;;4985785;28;20528;-70
2022/08/07 06:02:15;;;;;;;1.55;0.50;;;14.40;55.80;;;;;;4982920;28;20044;-72
2022/08/07 06:04:44;;;;;;;3.58;0.30;;;14.50;55.80;;;;;;4982490;28;20125;-70
2022/08/07 06:07:10;;;;;;;0.47;0.30;;;14.70;55.80;;;;;;4990083;28;20025;-70
2022/08/07 06:09:35;;;;;;;0.50;0.30;;;14.80;55.60;;;;;;4975365;28;20037;-70
2022/08/07 06:12:01;;;;;;;1.40;0.40;;;14.90;55.30;;;;;;5003466;28;20072;-70
2022/08/07 06:14:26;;;;;;;0.40;0.30;;;15.00;55.20;;;;;;4999900;28;20900;-70
2022/08/07 06:16:52;;;;;;;1.48;0.30;;;15.10;55.10;;;;;;4986643;28;20041;-74
2022/08/07 06:19:18;;;;;;;0.30;0.30;;;15.20;54.90;;;;;;5003065;28;20041;-70
2022/08/07 06:21:46;;;;;;;1.05;0.30;;;15.40;54.80;;;;;;4946236;28;20030;-70
2022/08/07 06:24:12;;;;;;;1.73;0.30;;;15.50;54.60;;;;;;4970527;28;20042;-72
2022/08/07 06:26:41;;;;;;;2.10;0.38;;;15.60;54.40;;;;;;4987102;28;20042;-71
2022/08/07 06:29:06;;;;;;;5.82;0.40;;;15.70;54.30;;;;;;4966016;28;20046;-71
2022/08/07 06:31:32;;;;;;;1.65;0.40;;;15.80;54.00;;;;;;4998401;28;20029;-71
2022/08/07 06:33:57;;;;;;;4.55;0.40;;;15.90;53.80;;;;;;5009103;28;20092;-71
2022/08/07 06:36:25;;;;;;;1.00;0.30;;;16.10;53.80;;;;;;5003245;28;20130;-70
2022/08/07 06:38:51;;;;;;;2.72;0.40;;;16.20;53.60;;;;;;4991917;28;20034;-70
2022/08/07 06:41:20;;;;;;;0.75;0.20;;;16.30;53.40;;;;;;4993322;28;20049;-71
2022/08/07 06:43:46;;;;;;;1.08;0.30;;;16.50;53.20;;;;;;4983939;28;20646;-71
2022/08/07 06:46:11;;;;;;;0.50;0.20;;;16.60;52.90;;;;;;4995463;28;20091;-70
2022/08/07 06:48:37;;;;;;;0.68;0.30;;;16.80;52.70;;;;;;4979687;28;20068;-71
2022/08/07 06:51:06;;;;;;;2.33;0.60;;;16.90;52.40;;;;;;4987454;28;20738;-70
2022/08/07 06:53:32;;;;;;;0.45;0.30;;;17.10;52.20;;;;;;4991122;28;20117;-71
2022/08/07 06:55:57;;;;;;;1.10;0.43;;;17.30;52.00;;;;;;4998469;28;20034;-70
2022/08/07 06:58:23;;;;;;;0.77;0.30;;;17.40;51.70;;;;;;4992591;28;20044;-70
2022/08/07 07:00:48;;;;;;;0.45;0.38;;;17.60;51.50;;;;;;4987530;28;20569;-72
2022/08/07 07:03:14;;;;;;;2.15;0.30;;;17.70;51.30;;;;;;4976254;28;20034;-71
2022/08/07 07:05:39;;;;;;;0.30;0.30;;;17.90;51.10;;;;;;4970412;28;20048;-71
2022/08/07 07:08:07;;;;;;;2.50;0.40;;;18.10;50.90;;;;;;4998309;28;20110;-71
2022/08/07 07:10:33;;;;;;;0.70;0.38;;;18.30;50.60;;;;;;4972888;28;20030;-71
2022/08/07 07:13:15;;;;;;;0.75;0.30;;;18.50;50.30;;;;;;4980412;28;20037;-72
2022/08/07 07:15:45;;;;;;;;;;;18.70;49.80;;;;;;4988229;28;20036;-71
2022/08/07 07:18:10;;;;;;;2.72;0.30;;;18.80;49.70;;;;;;5006410;28;19917;-71
2022/08/07 07:20:38;;;;;;;0.60;0.30;;;19.00;49.50;;;;;;4995281;28;20149;-71
2022/08/07 07:23:04;;;;;;;0.60;0.28;;;19.20;49.20;;;;;;4998880;28;20029;-70
2022/08/07 07:25:30;;;;;;;0.82;0.30;;;19.40;48.90;;;;;;4967384;28;20044;-70
2022/08/07 07:28:11;;;;;;;5.80;0.40;;;19.50;48.50;;;;;;4979241;28;20026;-70
2022/08/07 07:30:39;;;;;;;0.63;0.20;;;19.70;48.10;;;;;;4976463;28;20033;-71
2022/08/07 07:33:04;;;;;;;0.47;0.20;;;19.90;47.80;;;;;;4982006;28;20104;-71
2022/08/07 07:35:31;;;;;;;2.47;0.20;;;20.10;47.40;;;;;;4979305;28;20164;-70
2022/08/07 07:37:56;;;;;;;0.38;0.20;;;20.30;47.20;;;;;;4980664;28;20522;-71
2022/08/07 07:40:22;;;;;;;1.23;0.15;;;20.40;46.80;;;;;;4987655;28;20890;-71
2022/08/07 07:42:50;;;;;;;0.43;0.25;;;20.60;46.70;;;;;;4934595;28;20045;-71
2022/08/07 07:45:17;;;;;;;0.40;0.15;;;20.80;46.40;;;;;;4985860;28;20037;-72
2022/08/07 07:47:42;;;;;;;0.47;0.30;;;21.00;46.00;;;;;;4989904;28;20076;-71
2022/08/07 07:50:09;;;;;;;0.57;0.30;;;21.10;45.60;;;;;;4964352;28;21233;-71
2022/08/07 07:52:35;;;;;;;1.27;0.28;;;21.30;45.40;;;;;;4982315;28;20072;-71
2022/08/07 07:55:01;;;;;;;0.80;0.30;;;21.50;45.10;;;;;;4983833;28;20502;-70
2022/08/07 07:57:26;;;;;;;1.60;0.25;;;21.70;44.80;;;;;;4984148;28;20128;-70
2022/08/07 07:59:52;;;;;;;0.57;0.28;;;21.80;44.50;;;;;;5005138;28;20031;-70
2022/08/07 08:02:18;;;;;;;0.45;0.30;;;22.00;44.20;;;;;;4917303;28;20419;-70
2022/08/07 08:04:44;;;;;;;0.43;0.35;;;22.10;43.90;;;;;;4968962;28;20225;-71
2022/08/07 08:07:09;;;;;;;0.20;0.20;;;22.30;43.70;;;;;;4989422;28;20709;-70
2022/08/07 08:09:35;;;;;;;0.40;0.30;;;22.50;43.40;;;;;;4985853;28;20176;-70
2022/08/07 08:12:02;;;;;;;1.67;0.30;;;22.60;43.10;;;;;;4999157;28;20038;-70
2022/08/07 08:14:29;;;;;;;0.70;0.30;;;22.80;42.90;;;;;;4979640;28;20038;-71
2022/08/07 08:16:54;;;;;;;2.22;0.30;;;23.00;42.70;;;;;;4986683;28;20034;-70
2022/08/07 08:19:24;;;;;;;1.27;0.20;;;23.20;42.30;;;;;;4968647;28;20080;-70
2022/08/07 08:27:25;;;;;;;0.25;0.20;;;23.80;41.40;;;;;;4981468;28;20048;-71
2022/08/07 08:29:56;;;;;;;0.90;0.30;;;24.00;41.20;;;;;;4982026;28;20083;-70
2022/08/07 08:32:24;;;;;;;1.98;0.50;;;24.20;40.80;;;;;;4992952;28;20029;-71
2022/08/07 08:34:51;;;;;;;2.55;0.30;;;24.50;40.50;;;;;;4953748;28;20069;-70
2022/08/07 08:37:17;;;;;;;0.30;0.13;;;24.60;40.30;;;;;;4982546;28;20054;-71
2022/08/07 08:39:43;;;;;;;1.10;0.20;;;24.90;40.00;;;;;;5005142;28;20114;-69
2022/08/07 08:42:30;;;;;;;1.48;0.30;;;25.00;39.60;;;;;;4988712;28;20072;-69
2022/08/07 08:45:16;;;;;;;0.20;0.17;;;25.30;39.00;;;;;;5006020;28;20123;-69
2022/08/07 08:47:59;;;;;;;1.95;0.45;;;25.50;39.20;;;;;;4990121;28;20207;-70
2022/08/07 08:50:32;;;;;;;0.32;0.20;;;25.60;38.90;;;;;;5001000;28;20038;-70
2022/08/07 08:53:25;;;;;;;1.13;0.30;;;25.90;38.70;;;;;;5019153;28;20038;-70
2022/08/07 08:55:53;;;;;;;4.60;0.30;;;26.00;37.90;;;;;;5004705;28;20038;-72
2022/08/07 08:58:28;;;;;;;0.20;0.20;;;26.30;38.10;;;;;;5001841;28;20046;-74
2022/08/07 09:01:03;;;;;;;3.88;0.47;;;26.40;37.60;;;;;;5017132;28;20029;-71
2022/08/07 09:03:30;;;;;;;0.43;0.20;;;26.60;37.60;;;;;;5006968;28;20044;-71
2022/08/07 09:06:20;;;;;;;0.30;0.15;;;26.90;37.40;;;;;;5020190;28;20021;-70
2022/08/07 09:09:02;;;;;;;0.52;0.20;;;27.00;36.10;;;;;;4988392;28;20102;-72
2022/08/07 09:12:06;;;;;;;0.30;0.17;;;27.20;36.20;;;;;;4996983;28;20509;-73
2022/08/07 09:14:35;;;;;;;0.47;0.20;;;27.40;35.60;;;;;;4987161;28;20040;-72
2022/08/07 09:17:23;;;;;;;0.20;0.20;;;27.60;36.10;;;;;;5005990;28;20040;-71
2022/08/07 09:20:17;;;;;;;0.50;0.30;;;27.80;35.80;;;;;;5020986;28;20037;-71
2022/08/07 09:22:52;;;;;;;1.52;0.20;;;28.00;35.10;;;;;;4948679;28;20041;-71
2022/08/07 09:25:26;;;;;;;1.13;0.40;;;28.30;35.20;;;;;;4987840;28;20061;-71
2022/08/07 09:28:01;;;;;;;0.63;0.30;;;28.40;34.50;;;;;;5006178;28;20040;-71
2022/08/07 09:30:51;;;;;;;0.52;0.30;;;28.60;34.30;;;;;;5011520;28;20570;-71
2022/08/07 09:33:53;;;;;;;0.50;0.20;;;28.60;33.80;;;;;;5006490;28;20045;-71
2022/08/07 09:36:31;;;;;;;0.20;0.20;;;28.80;33.20;;;;;;5020070;28;20033;-71
2022/08/07 09:39:25;;;;;;;2.67;0.28;;;29.00;33.80;;;;;;5017977;28;20045;-71
2022/08/07 09:42:20;;;;;;;3.10;0.20;;;29.20;33.10;;;;;;5017456;28;20754;-73
2022/08/07 09:45:06;;;;;;;0.63;0.43;;;29.40;32.30;;;;;;5014710;28;20058;-70
2022/08/07 09:48:13;;;;;;;2.25;0.20;;;29.50;32.10;;;;;;5007927;28;20041;-72
2022/08/07 09:51:04;;;;;;;1.75;0.25;;;29.60;32.00;;;;;;4978126;28;20408;-71
2022/08/07 09:53:33;;;;;;;0.65;0.30;;;29.70;31.90;;;;;;4981847;28;20044;-71
2022/08/07 09:56:26;;;;;;;2.63;0.28;;;29.70;32.00;;;;;;4993956;28;20098;-71
2022/08/07 09:59:18;;;;;;;0.43;0.30;;;29.90;31.40;;;;;;5011126;28;20037;-71
2022/08/07 10:02:14;;;;;;;1.45;0.52;;;30.00;30.60;;;;;;5001651;28;20092;-73
2022/08/07 10:04:57;;;;;;;3.10;0.30;;;30.20;30.40;;;;;;5000187;28;20049;-71
2022/08/07 10:07:48;;;;;;;1.20;0.38;;;30.20;30.40;;;;;;4991207;28;20253;-71
2022/08/07 10:10:39;;;;;;;1.27;0.30;;;30.30;30.30;;;;;;4977054;28;20033;-73
2022/08/07 10:13:19;;;;;;;1.60;0.30;;;30.40;30.00;;;;;;4971774;28;20038;-72
2022/08/07 10:16:06;;;;;;;0.73;0.30;;;30.50;30.30;;;;;;4997472;28;20033;-72
2022/08/07 10:18:33;;;;;;;0.22;0.22;;;30.60;30.40;;;;;;4989907;28;21272;-71
2022/08/07 10:21:26;;;;;;;0.40;0.20;;;30.80;30.20;;;;;;4988608;28;20061;-71
2022/08/07 10:24:19;;;;;;;0.43;0.20;;;31.00;29.50;;;;;;4964771;28;20038;-72
2022/08/07 10:27:06;;;;;;;0.80;0.30;;;31.20;29.20;;;;;;4982098;28;20092;-71
2022/08/07 10:30:16;;;;;;;1.38;0.40;;;31.30;29.20;;;;;;4987156;28;20038;-71
2022/08/07 10:33:04;;;;;;;0.40;0.20;;;31.40;28.70;;;;;;4950548;28;20517;-71
2022/08/07 10:35:48;;;;;;;0.63;0.30;;;31.50;28.90;;;;;;5010962;28;20091;-71
2022/08/07 10:38:43;;;;;;;1.27;0.20;;;31.50;29.30;;;;;;4966219;28;20043;-72
2022/08/07 10:41:13;;;;;;;0.88;0.30;;;31.70;28.80;;;;;;5007725;28;20068;-72
2022/08/07 10:43:43;;;;;;;2.58;0.45;;;31.80;29.10;;;;;;4990688;28;20581;-72
2022/08/07 10:46:14;;;;;;;0.60;0.20;;;32.00;28.90;;;;;;5017124;28;20100;-72
2022/08/07 10:48:50;;;;;;;0.90;0.30;;;32.00;28.50;;;;;;4998118;28;20153;-71
2022/08/07 10:51:31;;;;;;;1.90;0.20;;;32.10;28.40;;;;;;5020720;28;20036;-71
2022/08/07 10:53:59;;;;;;;1.55;0.30;;;32.20;28.40;;;;;;5020862;28;20091;-71
2022/08/07 10:56:55;;;;;;;2.95;0.40;;;32.30;28.20;;;;;;5015958;28;20040;-72
2022/08/07 10:59:45;;;;;;;2.70;0.40;;;32.30;27.80;;;;;;5010384;28;20033;-72
2022/08/07 11:02:23;;;;;;;2.15;0.50;;;32.40;27.80;;;;;;5020313;28;20033;-71
2022/08/07 11:04:59;;;;;;;0.50;0.30;;;32.60;27.60;;;;;;5000643;28;20072;-72
2022/08/07 11:07:36;;;;;;;1.80;0.30;;;32.80;27.70;;;;;;4980284;28;20573;-72
2022/08/07 11:10:03;;;;;;;1.75;0.40;;;32.90;27.70;;;;;;4985972;28;20038;-72
2022/08/07 11:12:37;;;;;;;0.93;0.50;;;33.00;27.50;;;;;;4983422;28;20037;-72
2022/08/07 11:15:07;;;;;;;3.15;0.60;;;33.10;27.40;;;;;;4988463;28;20041;-71
2022/08/07 11:17:55;;;;;;;0.50;0.30;;;33.10;27.30;;;;;;4986754;28;20033;-71
2022/08/07 11:20:45;;;;;;;0.60;0.30;;;33.30;26.60;;;;;;4996090;28;20600;-71
2022/08/07 11:23:34;;;;;;;0.65;0.30;;;33.30;27.00;;;;;;4979645;28;20045;-71
2022/08/07 11:26:25;;;;;;;0.95;0.32;;;33.40;26.50;;;;;;5002951;28;20088;-71
2022/08/07 11:28:57;;;;;;;2.50;0.60;;;33.40;26.70;;;;;;4972050;28;20025;-70
2022/08/07 11:31:32;;;;;;;5.68;0.40;;;33.60;26.90;;;;;;4971208;28;20037;-71
2022/08/07 11:34:17;;;;;;;1.92;0.30;;;33.80;26.80;;;;;;4986103;28;20152;-72
2022/08/07 11:37:04;;;;;;;1.15;0.28;;;33.90;26.40;;;;;;4965486;28;20068;-71
2022/08/07 11:39:43;;;;;;;0.20;0.20;;;34.10;26.00;;;;;;5020609;28;20037;-71
2022/08/07 11:42:25;;;;;;;1.25;0.30;;;34.30;26.10;;;;;;5006815;28;20087;-71
2022/08/07 11:45:24;;;;;;;0.20;0.13;;;34.30;26.10;;;;;;4979310;28;20041;-71
2022/08/07 11:47:54;;;;;;;1.77;0.30;;;34.40;25.80;;;;;;4977373;28;20034;-71
2022/08/07 11:50:33;;;;;;;1.15;0.28;;;34.50;26.20;;;;;;4976686;28;21896;-71
2022/08/07 11:53:21;;;;;;;0.33;0.30;;;34.60;26.00;;;;;;4979703;28;20041;-71
2022/08/07 11:55:46;;;;;;;2.38;0.45;;;34.70;26.10;;;;;;4995767;28;20079;-71
2022/08/07 11:58:27;;;;;;;1.35;0.30;;;34.90;26.10;;;;;;4979783;28;20038;-72
2022/08/07 12:01:39;;;;;;;2.80;0.35;;;35.00;25.60;;;;;;4980204;28;20037;-71
2022/08/07 12:04:29;;;;;;;0.70;0.20;;;35.00;25.10;;;;;;5012112;28;20040;-71
2022/08/07 12:07:05;;;;;;;0.57;0.30;;;35.00;25.10;;;;;;5025190;28;20037;-71
2022/08/07 12:09:38;;;;;;;2.47;0.38;;;35.10;25.30;;;;;;4985553;28;20064;-71
2022/08/07 12:12:11;;;;;;;1.50;0.20;;;35.00;25.30;;;;;;5004206;28;20035;-72
2022/08/07 12:15:04;;;;;;;0.75;0.25;;;34.90;25.20;;;;;;4977008;28;20034;-71
2022/08/07 12:17:37;;;;;;;0.52;0.30;;;35.00;25.00;;;;;;4968385;28;20041;-72
2022/08/07 12:20:09;;;;;;;0.70;0.30;;;35.10;25.20;;;;;;5021581;28;20132;-72
2022/08/07 12:22:51;;;;;;;0.30;0.30;;;35.20;25.00;;;;;;5007850;28;20036;-72
2022/08/07 12:26:01;;;;;;;1.85;0.40;;;35.30;25.00;;;;;;4979923;28;20048;-72
2022/08/07 12:28:30;;;;;;;2.72;0.22;;;35.30;24.90;;;;;;4988844;28;20136;-71
2022/08/07 12:31:00;;;;;;;1.85;0.30;;;35.30;24.90;;;;;;5022252;28;20095;-72
2022/08/07 12:33:27;;;;;;;1.48;0.40;;;35.40;24.90;;;;;;5010847;28;20289;-72
2022/08/07 12:35:52;;;;;;;1.17;0.30;;;35.40;24.90;;;;;;4991391;28;20041;-71
2022/08/07 12:38:18;;;;;;;0.88;0.22;;;35.40;24.90;;;;;;4989973;28;20085;-74
2022/08/07 12:40:45;;;;;;;0.50;0.32;;;35.50;24.70;;;;;;4987296;28;20080;-72
2022/08/07 12:43:11;;;;;;;0.40;0.20;;;35.50;24.60;;;;;;4979260;28;20038;-72
2022/08/07 12:45:45;;;;;;;0.65;0.30;;;35.60;24.60;;;;;;4998265;28;20037;-72
2022/08/07 12:48:15;;;;;;;0.57;0.20;;;35.70;24.40;;;;;;4988282;28;20044;-71
2022/08/07 12:50:49;;;;;;;0.82;0.20;;;35.70;24.40;;;;;;4965118;28;20128;-72
2022/08/07 12:53:25;;;;;;;3.13;0.32;;;35.90;24.30;;;;;;4999651;28;20044;-71
2022/08/07 12:56:09;;;;;;;1.23;0.30;;;35.90;24.40;;;;;;4981154;28;20125;-72
2022/08/07 12:58:39;;;;;;;2.30;0.30;;;35.90;23.90;;;;;;4976992;28;20410;-72
2022/08/07 13:01:19;;;;;;;0.20;0.20;;;35.90;24.00;;;;;;4952451;28;20069;-72
2022/08/07 13:04:15;;;;;;;0.65;0.20;;;35.90;23.60;;;;;;4966419;28;20037;-72
2022/08/07 13:06:51;;;;;;;1.20;0.20;;;35.80;23.60;;;;;;4983099;28;20033;-73
2022/08/07 13:09:30;;;;;;;1.65;0.40;;;35.90;23.70;;;;;;4988476;28;20053;-73
2022/08/07 13:12:15;;;;;;;1.38;0.30;;;36.00;23.60;;;;;;5000737;28;20480;-72
2022/08/07 13:14:55;;;;;;;1.35;0.30;;;36.00;23.20;;;;;;5008615;28;20126;-73
2022/08/07 13:17:50;;;;;;;0.75;0.20;;;36.00;23.60;;;;;;4991819;28;20032;-72